sensor_id;sensor_type;location;lat;lon;timestamp;pressure;altitude;pressure_sealevel;temperature;humidity
76128;BME280;64873;50.102;14.434;2023-03-13T00:01:29;98815.38;;;7.47;74.87
76128;BME280;64873;50.102;14.434;2023-03-13T00:03:55;98804.94;;;7.46;74.66
76128;BME280;64873;50.102;14.434;2023-03-13T00:06:23;98814.94;;;7.57;74.39
76128;BME280;64873;50.102;14.434;2023-03-13T00:08:49;98792.84;;;7.50;74.35
76128;BME280;64873;50.102;14.434;2023-03-13T00:11:15;98815.34;;;7.54;74.08
76128;BME280;64873;50.102;14.434;2023-03-13T00:13:42;98809.19;;;7.60;74.09
76128;BME280;64873;50.102;14.434;2023-03-13T00:16:10;98807.81;;;7.51;74.32
76128;BME280;64873;50.102;14.434;2023-03-13T00:18:36;98805.56;;;7.48;74.53
76128;BME280;64873;50.102;14.434;2023-03-13T00:21:04;98816.38;;;7.53;73.94
76128;BME280;64873;50.102;14.434;2023-03-13T00:23:31;98822.09;;;7.63;73.62
76128;BME280;64873;50.102;14.434;2023-03-13T00:26:03;98822.28;;;7.68;73.90
76128;BME280;64873;50.102;14.434;2023-03-13T00:28:31;98805.13;;;7.58;74.13
76128;BME280;64873;50.102;14.434;2023-03-13T00:33:31;98805.94;;;7.58;73.96
76128;BME280;64873;50.102;14.434;2023-03-13T00:36:01;98797.75;;;7.60;73.64
76128;BME280;64873;50.102;14.434;2023-03-13T00:38:28;98819.19;;;7.71;73.14
76128;BME280;64873;50.102;14.434;2023-03-13T00:41:08;98814.50;;;7.60;73.67
76128;BME280;64873;50.102;14.434;2023-03-13T00:43:36;98807.53;;;7.66;73.32
76128;BME280;64873;50.102;14.434;2023-03-13T00:46:01;98798.97;;;7.64;73.57
76128;BME280;64873;50.102;14.434;2023-03-13T00:48:27;98807.16;;;7.56;73.75
76128;BME280;64873;50.102;14.434;2023-03-13T00:50:53;98814.94;;;7.57;73.48
76128;BME280;64873;50.102;14.434;2023-03-13T00:53:18;98809.41;;;7.59;73.38
76128;BME280;64873;50.102;14.434;2023-03-13T00:58:25;98802.69;;;7.43;74.13
76128;BME280;64873;50.102;14.434;2023-03-13T01:00:52;98802.28;;;7.33;74.31
76128;BME280;64873;50.102;14.434;2023-03-13T01:03:19;98801.50;;;7.26;74.27
76128;BME280;64873;50.102;14.434;2023-03-13T01:05:44;98806.19;;;7.37;74.16
76128;BME280;64873;50.102;14.434;2023-03-13T01:08:10;98806.41;;;7.29;74.67
76128;BME280;64873;50.102;14.434;2023-03-13T01:10:35;98812.53;;;7.36;74.43
76128;BME280;64873;50.102;14.434;2023-03-13T01:13:01;98810.47;;;7.38;73.85
76128;BME280;64873;50.102;14.434;2023-03-13T01:15:29;98804.94;;;7.46;74.04
76128;BME280;64873;50.102;14.434;2023-03-13T01:17:55;98805.56;;;7.41;74.08
76128;BME280;64873;50.102;14.434;2023-03-13T01:20:20;98821.47;;;7.61;73.54
76128;BME280;64873;50.102;14.434;2023-03-13T01:22:46;98816.13;;;7.61;73.75
76128;BME280;64873;50.102;14.434;2023-03-13T01:25:11;98810.03;;;7.54;73.54
76128;BME280;64873;50.102;14.434;2023-03-13T01:27:37;98811.66;;;7.55;73.55
76128;BME280;64873;50.102;14.434;2023-03-13T01:30:02;98794.50;;;7.51;73.84
76128;BME280;64873;50.102;14.434;2023-03-13T01:32:28;98799.19;;;7.49;74.02
76128;BME280;64873;50.102;14.434;2023-03-13T01:34:53;98803.09;;;7.53;73.61
76128;BME280;64873;50.102;14.434;2023-03-13T01:37:18;98813.69;;;7.60;73.66
76128;BME280;64873;50.102;14.434;2023-03-13T01:39:44;98805.94;;;7.58;73.69
76128;BME280;64873;50.102;14.434;2023-03-13T01:42:09;98798.34;;;7.62;73.43
76128;BME280;64873;50.102;14.434;2023-03-13T01:44:55;98791.81;;;7.64;73.31
76128;BME280;64873;50.102;14.434;2023-03-13T01:47:22;98789.78;;;7.60;73.13
76128;BME280;64873;50.102;14.434;2023-03-13T01:49:48;98788.38;;;7.44;73.97
76128;BME280;64873;50.102;14.434;2023-03-13T01:52:19;98772.06;;;7.34;74.66
76128;BME280;64873;50.102;14.434;2023-03-13T01:54:51;98775.50;;;7.41;74.24
76128;BME280;64873;50.102;14.434;2023-03-13T01:57:30;98771.66;;;7.24;74.64
76128;BME280;64873;50.102;14.434;2023-03-13T02:00:10;98776.94;;;7.37;74.54
76128;BME280;64873;50.102;14.434;2023-03-13T02:02:38;98775.56;;;7.28;74.77
76128;BME280;64873;50.102;14.434;2023-03-13T02:05:06;98759.00;;;7.12;75.01
76128;BME280;64873;50.102;14.434;2023-03-13T02:07:49;98764.28;;;7.26;75.38
76128;BME280;64873;50.102;14.434;2023-03-13T02:10:18;98762.84;;;7.36;74.71
76128;BME280;64873;50.102;14.434;2023-03-13T02:12:47;98765.31;;;7.31;74.80
76128;BME280;64873;50.102;14.434;2023-03-13T02:15:14;98768.41;;;7.21;74.96
76128;BME280;64873;50.102;14.434;2023-03-13T02:17:41;98775.94;;;7.25;75.35
76128;BME280;64873;50.102;14.434;2023-03-13T02:20:08;98766.69;;;7.54;74.09
76128;BME280;64873;50.102;14.434;2023-03-13T02:28:11;98776.56;;;7.33;75.07
76128;BME280;64873;50.102;14.434;2023-03-13T02:30:39;98776.53;;;7.40;74.73
76128;BME280;64873;50.102;14.434;2023-03-13T02:33:06;98773.06;;;7.46;74.48
76128;BME280;64873;50.102;14.434;2023-03-13T02:35:31;98773.66;;;7.48;74.55
76128;BME280;64873;50.102;14.434;2023-03-13T02:38:02;98784.28;;;7.48;74.30
76128;BME280;64873;50.102;14.434;2023-03-13T02:40:37;98785.88;;;7.56;74.17
76128;BME280;64873;50.102;14.434;2023-03-13T02:43:09;98775.47;;;7.54;73.52
76128;BME280;64873;50.102;14.434;2023-03-13T02:45:35;98769.91;;;7.69;73.44
76128;BME280;64873;50.102;14.434;2023-03-13T02:48:00;98771.56;;;7.63;73.51
76128;BME280;64873;50.102;14.434;2023-03-13T02:50:26;98755.81;;;7.68;73.60
76128;BME280;64873;50.102;14.434;2023-03-13T02:52:58;98763.41;;;7.58;73.67
76128;BME280;64873;50.102;14.434;2023-03-13T02:55:38;98759.13;;;7.57;73.87
76128;BME280;64873;50.102;14.434;2023-03-13T02:58:05;98747.91;;;7.42;73.80
76128;BME280;64873;50.102;14.434;2023-03-13T03:00:30;98765.28;;;7.51;74.14
76128;BME280;64873;50.102;14.434;2023-03-13T03:02:56;98765.56;;;7.81;72.92
76128;BME280;64873;50.102;14.434;2023-03-13T03:05:21;98761.97;;;7.56;73.40
76128;BME280;64873;50.102;14.434;2023-03-13T03:07:47;98761.75;;;7.64;73.41
76128;BME280;64873;50.102;14.434;2023-03-13T03:10:13;98762.94;;;7.74;73.25
76128;BME280;64873;50.102;14.434;2023-03-13T03:12:39;98764.16;;;7.72;73.63
76128;BME280;64873;50.102;14.434;2023-03-13T03:15:05;98752.69;;;7.71;73.07
76128;BME280;64873;50.102;14.434;2023-03-13T03:17:31;98735.78;;;7.59;73.46
76128;BME280;64873;50.102;14.434;2023-03-13T03:19:56;98732.28;;;7.65;73.14
76128;BME280;64873;50.102;14.434;2023-03-13T03:22:21;98747.38;;;7.71;73.21
76128;BME280;64873;50.102;14.434;2023-03-13T03:24:47;98737.31;;;7.87;72.54
76128;BME280;64873;50.102;14.434;2023-03-13T03:27:12;98744.47;;;7.80;72.93
76128;BME280;64873;50.102;14.434;2023-03-13T03:29:38;98744.13;;;7.69;73.15
76128;BME280;64873;50.102;14.434;2023-03-13T03:32:03;98733.66;;;7.81;72.64
76128;BME280;64873;50.102;14.434;2023-03-13T03:34:29;98736.38;;;7.61;73.64
76128;BME280;64873;50.102;14.434;2023-03-13T03:36:54;98734.91;;;7.72;73.67
76128;BME280;64873;50.102;14.434;2023-03-13T03:39:20;98735.50;;;7.81;72.80
76128;BME280;64873;50.102;14.434;2023-03-13T03:41:45;98735.56;;;7.61;73.39
76128;BME280;64873;50.102;14.434;2023-03-13T03:44:11;98723.50;;;7.58;73.04
76128;BME280;64873;50.102;14.434;2023-03-13T03:46:36;98743.16;;;7.57;73.08
76128;BME280;64873;50.102;14.434;2023-03-13T03:49:02;98722.09;;;7.49;73.97
76128;BME280;64873;50.102;14.434;2023-03-13T03:51:27;98725.34;;;7.58;73.04
76128;BME280;64873;50.102;14.434;2023-03-13T03:53:52;98729.69;;;7.52;73.59
76128;BME280;64873;50.102;14.434;2023-03-13T03:56:19;98724.44;;;7.77;72.83
76128;BME280;64873;50.102;14.434;2023-03-13T03:58:45;98716.50;;;7.70;72.21
76128;BME280;64873;50.102;14.434;2023-03-13T04:01:10;98717.19;;;7.53;73.41
76128;BME280;64873;50.102;14.434;2023-03-13T04:03:35;98715.91;;;7.62;73.40
76128;BME280;64873;50.102;14.434;2023-03-13T04:06:01;98707.09;;;7.74;72.17
76128;BME280;64873;50.102;14.434;2023-03-13T04:08:26;98718.78;;;7.60;73.19
76128;BME280;64873;50.102;14.434;2023-03-13T04:10:52;98704.88;;;7.65;72.79
76128;BME280;64873;50.102;14.434;2023-03-13T04:13:17;98705.59;;;7.79;72.49
76128;BME280;64873;50.102;14.434;2023-03-13T04:15:43;98706.72;;;7.64;72.71
76128;BME280;64873;50.102;14.434;2023-03-13T04:18:08;98692.63;;;7.57;72.94
76128;BME280;64873;50.102;14.434;2023-03-13T04:20:34;98692.16;;;7.67;72.30
76128;BME280;64873;50.102;14.434;2023-03-13T04:22:59;98688.16;;;7.44;72.85
76128;BME280;64873;50.102;14.434;2023-03-13T04:25:25;98692.88;;;7.49;73.19
76128;BME280;64873;50.102;14.434;2023-03-13T04:27:50;98706.22;;;7.36;74.04
76128;BME280;64873;50.102;14.434;2023-03-13T04:30:16;98696.41;;;7.36;74.02
76128;BME280;64873;50.102;14.434;2023-03-13T04:32:41;98684.53;;;7.32;74.00
76128;BME280;64873;50.102;14.434;2023-03-13T04:35:07;98690.28;;;7.29;73.89
76128;BME280;64873;50.102;14.434;2023-03-13T04:37:33;98682.69;;;7.39;73.88
76128;BME280;64873;50.102;14.434;2023-03-13T04:39:59;98682.66;;;7.46;73.47
76128;BME280;64873;50.102;14.434;2023-03-13T04:42:24;98681.19;;;7.50;73.42
76128;BME280;64873;50.102;14.434;2023-03-13T04:44:50;98672.63;;;7.48;73.33
76128;BME280;64873;50.102;14.434;2023-03-13T04:47:15;98662.44;;;7.45;73.69
76128;BME280;64873;50.102;14.434;2023-03-13T04:49:41;98667.97;;;7.37;73.89
76128;BME280;64873;50.102;14.434;2023-03-13T04:52:06;98660.47;;;7.65;72.92
76128;BME280;64873;50.102;14.434;2023-03-13T04:54:31;98657.88;;;7.52;72.92
76128;BME280;64873;50.102;14.434;2023-03-13T04:56:57;98665.97;;;7.70;72.15
76128;BME280;64873;50.102;14.434;2023-03-13T04:59:22;98659.44;;;7.66;72.37
76128;BME280;64873;50.102;14.434;2023-03-13T05:01:48;98667.25;;;7.61;72.56
76128;BME280;64873;50.102;14.434;2023-03-13T05:04:13;98647.47;;;7.44;73.40
76128;BME280;64873;50.102;14.434;2023-03-13T05:06:38;98645.44;;;7.46;73.01
76128;BME280;64873;50.102;14.434;2023-03-13T05:09:04;98643.38;;;7.48;73.28
76128;BME280;64873;50.102;14.434;2023-03-13T05:11:30;98643.13;;;7.56;73.15
76128;BME280;64873;50.102;14.434;2023-03-13T05:13:56;98645.97;;;7.61;72.99
76128;BME280;64873;50.102;14.434;2023-03-13T05:16:21;98644.97;;;7.62;72.65
76128;BME280;64873;50.102;14.434;2023-03-13T05:18:47;98637.75;;;7.69;72.80
76128;BME280;64873;50.102;14.434;2023-03-13T05:21:12;98637.75;;;7.69;72.82
76128;BME280;64873;50.102;14.434;2023-03-13T05:23:37;98633.72;;;7.60;72.92
76128;BME280;64873;50.102;14.434;2023-03-13T05:26:03;98632.13;;;7.53;73.19
76128;BME280;64873;50.102;14.434;2023-03-13T05:28:30;98623.44;;;7.70;72.44
76128;BME280;64873;50.102;14.434;2023-03-13T05:30:55;98633.72;;;7.60;72.45
76128;BME280;64873;50.102;14.434;2023-03-13T05:33:21;98617.25;;;7.77;71.98
76128;BME280;64873;50.102;14.434;2023-03-13T05:35:46;98615.44;;;7.70;71.95
76128;BME280;64873;50.102;14.434;2023-03-13T05:38:12;98606.31;;;7.60;72.47
76128;BME280;64873;50.102;14.434;2023-03-13T05:40:38;98594.75;;;7.72;71.56
76128;BME280;64873;50.102;14.434;2023-03-13T05:43:04;98598.47;;;7.71;72.19
76128;BME280;64873;50.102;14.434;2023-03-13T05:45:29;98582.72;;;7.70;71.58
76128;BME280;64873;50.102;14.434;2023-03-13T05:47:55;98591.88;;;7.81;71.19
76128;BME280;64873;50.102;14.434;2023-03-13T05:50:21;98581.06;;;7.75;71.48
76128;BME280;64873;50.102;14.434;2023-03-13T05:52:46;98598.41;;;8.03;70.92
76128;BME280;64873;50.102;14.434;2023-03-13T05:55:12;98583.19;;;7.92;71.04
76128;BME280;64873;50.102;14.434;2023-03-13T05:57:37;98577.75;;;7.80;71.11
76128;BME280;64873;50.102;14.434;2023-03-13T06:00:03;98571.81;;;7.78;71.18
76128;BME280;64873;50.102;14.434;2023-03-13T06:02:29;98570.91;;;7.91;70.93
76128;BME280;64873;50.102;14.434;2023-03-13T06:04:54;98574.94;;;8.00;70.17
76128;BME280;64873;50.102;14.434;2023-03-13T06:07:20;98565.31;;;7.99;70.79
76128;BME280;64873;50.102;14.434;2023-03-13T06:09:45;98556.53;;;7.98;70.42
76128;BME280;64873;50.102;14.434;2023-03-13T06:12:11;98566.94;;;8.00;70.36
76128;BME280;64873;50.102;14.434;2023-03-13T06:14:36;98570.47;;;7.94;70.24
76128;BME280;64873;50.102;14.434;2023-03-13T06:17:03;98565.50;;;8.04;70.27
76128;BME280;64873;50.102;14.434;2023-03-13T06:19:28;98557.50;;;8.04;70.16
76128;BME280;64873;50.102;14.434;2023-03-13T06:21:54;98563.75;;;8.16;69.80
76128;BME280;64873;50.102;14.434;2023-03-13T06:24:19;98555.94;;;8.15;69.85
76128;BME280;64873;50.102;14.434;2023-03-13T06:26:47;98562.06;;;8.22;69.55
76128;BME280;64873;50.102;14.434;2023-03-13T06:29:13;98557.97;;;8.19;71.23
76128;BME280;64873;50.102;14.434;2023-03-13T06:31:38;98558.34;;;8.23;69.83
76128;BME280;64873;50.102;14.434;2023-03-13T06:34:04;98546.81;;;8.29;69.11
76128;BME280;64873;50.102;14.434;2023-03-13T06:36:29;98545.22;;;8.28;68.99
76128;BME280;64873;50.102;14.434;2023-03-13T06:38:54;98541.72;;;8.27;68.93
76128;BME280;64873;50.102;14.434;2023-03-13T06:41:20;98542.66;;;8.40;68.17
76128;BME280;64873;50.102;14.434;2023-03-13T06:43:45;98541.78;;;8.46;68.53
76128;BME280;64873;50.102;14.434;2023-03-13T06:46:19;98524.75;;;8.47;67.90
76128;BME280;64873;50.102;14.434;2023-03-13T06:48:45;98515.59;;;8.43;67.95
76128;BME280;64873;50.102;14.434;2023-03-13T06:51:12;98519.81;;;8.50;67.78
76128;BME280;64873;50.102;14.434;2023-03-13T06:53:38;98534.28;;;8.54;67.82
76128;BME280;64873;50.102;14.434;2023-03-13T06:56:04;98539.19;;;8.58;67.36
76128;BME280;64873;50.102;14.434;2023-03-13T06:58:30;98546.16;;;8.59;67.59
76128;BME280;64873;50.102;14.434;2023-03-13T07:00:55;98529.63;;;8.87;66.56
76128;BME280;64873;50.102;14.434;2023-03-13T07:03:20;98523.84;;;8.90;66.50
76128;BME280;64873;50.102;14.434;2023-03-13T07:05:46;98524.00;;;8.76;66.87
76128;BME280;64873;50.102;14.434;2023-03-13T07:08:11;98526.09;;;8.56;67.44
76128;BME280;64873;50.102;14.434;2023-03-13T07:10:37;98521.88;;;8.67;67.07
76128;BME280;64873;50.102;14.434;2023-03-13T07:13:02;98511.00;;;8.68;67.03
76128;BME280;64873;50.102;14.434;2023-03-13T07:15:27;98516.47;;;8.73;67.05
76128;BME280;64873;50.102;14.434;2023-03-13T07:17:55;98504.78;;;8.74;67.12
76128;BME280;64873;50.102;14.434;2023-03-13T07:20:21;98519.56;;;8.89;66.06
76128;BME280;64873;50.102;14.434;2023-03-13T07:22:50;98521.78;;;8.73;67.32
76128;BME280;64873;50.102;14.434;2023-03-13T07:25:16;98505.38;;;8.76;66.70
76128;BME280;64873;50.102;14.434;2023-03-13T07:27:42;98505.66;;;8.87;66.64
76128;BME280;64873;50.102;14.434;2023-03-13T07:30:07;98502.25;;;8.98;66.62
76128;BME280;64873;50.102;14.434;2023-03-13T07:32:33;98504.13;;;9.09;65.83
76128;BME280;64873;50.102;14.434;2023-03-13T07:34:58;98494.38;;;9.03;65.91
76128;BME280;64873;50.102;14.434;2023-03-13T07:37:24;98492.69;;;9.20;65.82
76128;BME280;64873;50.102;14.434;2023-03-13T07:39:49;98496.25;;;9.14;65.80
76128;BME280;64873;50.102;14.434;2023-03-13T07:42:14;98490.34;;;9.12;65.71
76128;BME280;64873;50.102;14.434;2023-03-13T07:44:40;98489.94;;;8.97;66.39
76128;BME280;64873;50.102;14.434;2023-03-13T07:47:05;98484.97;;;9.00;66.22
76128;BME280;64873;50.102;14.434;2023-03-13T07:49:31;98473.78;;;9.10;65.76
76128;BME280;64873;50.102;14.434;2023-03-13T07:51:57;98477.50;;;9.09;66.10
76128;BME280;64873;50.102;14.434;2023-03-13T07:54:23;98481.91;;;9.15;66.25
76128;BME280;64873;50.102;14.434;2023-03-13T07:56:48;98471.72;;;9.24;66.34
76128;BME280;64873;50.102;14.434;2023-03-13T07:59:15;98450.56;;;9.52;64.86
76128;BME280;64873;50.102;14.434;2023-03-13T08:01:40;98448.84;;;9.58;64.68
76128;BME280;64873;50.102;14.434;2023-03-13T08:04:06;98464.84;;;9.58;65.61
76128;BME280;64873;50.102;14.434;2023-03-13T08:06:32;98448.38;;;9.61;65.01
76128;BME280;64873;50.102;14.434;2023-03-13T08:09:00;98445.13;;;9.59;65.36
76128;BME280;64873;50.102;14.434;2023-03-13T08:11:27;98458.34;;;9.77;64.89
76128;BME280;64873;50.102;14.434;2023-03-13T08:13:54;98456.72;;;9.76;64.82
76128;BME280;64873;50.102;14.434;2023-03-13T08:16:27;98454.53;;;9.61;64.83
76128;BME280;64873;50.102;14.434;2023-03-13T08:18:54;98443.50;;;9.81;64.92
76128;BME280;64873;50.102;14.434;2023-03-13T08:21:23;98446.31;;;9.86;64.46
76128;BME280;64873;50.102;14.434;2023-03-13T08:23:52;98431.56;;;9.84;63.99
76128;BME280;64873;50.102;14.434;2023-03-13T08:26:19;98425.06;;;10.03;63.80
76128;BME280;64873;50.102;14.434;2023-03-13T08:28:46;98422.25;;;10.22;63.04
76128;BME280;64873;50.102;14.434;2023-03-13T08:31:14;98420.03;;;10.30;62.65
76128;BME280;64873;50.102;14.434;2023-03-13T08:33:41;98413.63;;;10.20;63.61
76128;BME280;64873;50.102;14.434;2023-03-13T08:36:17;98403.91;;;10.02;63.64
76128;BME280;64873;50.102;14.434;2023-03-13T08:38:44;98398.56;;;10.13;63.17
76128;BME280;64873;50.102;14.434;2023-03-13T08:41:11;98401.81;;;10.15;62.90
76128;BME280;64873;50.102;14.434;2023-03-13T08:43:36;98400.28;;;10.31;62.46
76128;BME280;64873;50.102;14.434;2023-03-13T08:46:02;98405.06;;;10.29;62.94
76128;BME280;64873;50.102;14.434;2023-03-13T08:48:30;98402.66;;;10.28;63.34
76128;BME280;64873;50.102;14.434;2023-03-13T08:51:14;98395.19;;;10.30;63.03
76128;BME280;64873;50.102;14.434;2023-03-13T08:53:41;98396.59;;;10.32;63.22
76128;BME280;64873;50.102;14.434;2023-03-13T08:56:09;98391.59;;;10.24;62.82
76128;BME280;64873;50.102;14.434;2023-03-13T08:58:34;98390.34;;;10.55;62.23
76128;BME280;64873;50.102;14.434;2023-03-13T09:01:02;98378.38;;;10.58;61.99
76128;BME280;64873;50.102;14.434;2023-03-13T09:03:27;98360.53;;;10.75;61.35
76128;BME280;64873;50.102;14.434;2023-03-13T09:05:55;98370.66;;;10.73;61.50
76128;BME280;64873;50.102;14.434;2023-03-13T09:08:21;98367.94;;;11.02;60.72
76128;BME280;64873;50.102;14.434;2023-03-13T09:10:46;98363.41;;;10.85;61.60
76128;BME280;64873;50.102;14.434;2023-03-13T09:13:12;98378.03;;;10.83;61.98
76128;BME280;64873;50.102;14.434;2023-03-13T09:15:37;98373.69;;;10.65;63.13
76128;BME280;64873;50.102;14.434;2023-03-13T09:18:02;98373.81;;;10.70;63.54
76128;BME280;64873;50.102;14.434;2023-03-13T09:20:28;98369.94;;;10.49;63.92
76128;BME280;64873;50.102;14.434;2023-03-13T09:22:53;98372.59;;;10.49;64.34
76128;BME280;64873;50.102;14.434;2023-03-13T09:25:19;98381.81;;;10.41;64.95
76128;BME280;64873;50.102;14.434;2023-03-13T09:27:44;98394.00;;;10.37;64.58
76128;BME280;64873;50.102;14.434;2023-03-13T09:30:10;98393.94;;;10.32;64.45
76128;BME280;64873;50.102;14.434;2023-03-13T09:32:38;98407.59;;;10.36;64.57
76128;BME280;64873;50.102;14.434;2023-03-13T09:35:04;98389.28;;;10.28;64.96
76128;BME280;64873;50.102;14.434;2023-03-13T09:37:30;98392.66;;;10.23;65.11
76128;BME280;64873;50.102;14.434;2023-03-13T09:39:55;98391.09;;;10.51;64.54
76128;BME280;64873;50.102;14.434;2023-03-13T09:42:40;98387.00;;;10.48;65.52
76128;BME280;64873;50.102;14.434;2023-03-13T09:45:15;98377.72;;;10.51;65.26
76128;BME280;64873;50.102;14.434;2023-03-13T09:47:45;98381.91;;;10.47;66.17
76128;BME280;64873;50.102;14.434;2023-03-13T09:50:17;98370.06;;;10.71;65.63
76128;BME280;64873;50.102;14.434;2023-03-13T09:52:44;98377.97;;;10.94;65.11
76128;BME280;64873;50.102;14.434;2023-03-13T09:55:27;98387.78;;;11.06;64.74
76128;BME280;64873;50.102;14.434;2023-03-13T09:57:58;98394.19;;;11.05;65.10
76128;BME280;64873;50.102;14.434;2023-03-13T10:00:29;98402.31;;;11.10;65.21
76128;BME280;64873;50.102;14.434;2023-03-13T10:03:13;98379.59;;;11.12;65.26
76128;BME280;64873;50.102;14.434;2023-03-13T10:05:51;98361.94;;;11.11;65.18
76128;BME280;64873;50.102;14.434;2023-03-13T10:08:18;98367.94;;;11.02;65.73
76128;BME280;64873;50.102;14.434;2023-03-13T10:10:49;98357.47;;;11.00;65.66
76128;BME280;64873;50.102;14.434;2023-03-13T10:15:58;98358.84;;;11.36;66.10
76128;BME280;64873;50.102;14.434;2023-03-13T10:18:25;98343.72;;;11.25;65.43
76128;BME280;64873;50.102;14.434;2023-03-13T10:21:09;98341.97;;;11.69;63.88
76128;BME280;64873;50.102;14.434;2023-03-13T10:23:45;98335.69;;;11.97;64.11
76128;BME280;64873;50.102;14.434;2023-03-13T10:26:21;98315.47;;;12.12;62.57
76128;BME280;64873;50.102;14.434;2023-03-13T10:28:52;98322.34;;;12.03;62.80
76128;BME280;64873;50.102;14.434;2023-03-13T10:34:05;98313.41;;;12.19;63.40
76128;BME280;64873;50.102;14.434;2023-03-13T10:36:39;98325.91;;;12.08;62.99
76128;BME280;64873;50.102;14.434;2023-03-13T10:39:07;98319.84;;;12.18;62.16
76128;BME280;64873;50.102;14.434;2023-03-13T10:41:35;98326.56;;;11.98;63.03
76128;BME280;64873;50.102;14.434;2023-03-13T10:44:16;98327.84;;;11.91;63.73
76128;BME280;64873;50.102;14.434;2023-03-13T10:46:44;98319.69;;;12.03;63.50
76128;BME280;64873;50.102;14.434;2023-03-13T10:49:18;98316.28;;;12.12;63.23
76128;BME280;64873;50.102;14.434;2023-03-13T10:51:52;98330.75;;;12.11;63.34
76128;BME280;64873;50.102;14.434;2023-03-13T10:54:29;98318.69;;;11.70;64.90
76128;BME280;64873;50.102;14.434;2023-03-13T10:57:26;98323.34;;;11.96;64.55
76128;BME280;64873;50.102;14.434;2023-03-13T10:59:53;98321.03;;;11.83;65.00
76128;BME280;64873;50.102;14.434;2023-03-13T11:02:26;98315.94;;;12.04;64.74
76128;BME280;64873;50.102;14.434;2023-03-13T11:04:52;98320.84;;;11.90;65.17
76128;BME280;64873;50.102;14.434;2023-03-13T11:09:57;98311.78;;;11.91;65.07
76128;BME280;64873;50.102;14.434;2023-03-13T11:12:23;98311.06;;;12.00;65.33
76128;BME280;64873;50.102;14.434;2023-03-13T11:14:58;98299.06;;;12.30;63.86
76128;BME280;64873;50.102;14.434;2023-03-13T11:17:39;98309.69;;;12.20;64.28
76128;BME280;64873;50.102;14.434;2023-03-13T11:22:50;98282.00;;;12.36;64.05
76128;BME280;64873;50.102;14.434;2023-03-13T11:28:05;98287.56;;;12.57;64.24
76128;BME280;64873;50.102;14.434;2023-03-13T11:30:48;98279.44;;;12.46;63.92
76128;BME280;64873;50.102;14.434;2023-03-13T11:38:38;98245.09;;;13.07;62.36
76128;BME280;64873;50.102;14.434;2023-03-13T11:46:48;98250.38;;;12.97;62.71
76128;BME280;64873;50.102;14.434;2023-03-13T11:52:40;98255.88;;;12.80;63.15
76128;BME280;64873;50.102;14.434;2023-03-13T11:55:44;98252.56;;;12.68;63.67
76128;BME280;64873;50.102;14.434;2023-03-13T12:00:53;98255.59;;;13.14;62.51
76128;BME280;64873;50.102;14.434;2023-03-13T12:03:38;98274.91;;;12.79;64.12
76128;BME280;64873;50.102;14.434;2023-03-13T12:06:22;98268.38;;;12.70;64.07
76128;BME280;64873;50.102;14.434;2023-03-13T12:08:50;98281.28;;;12.73;64.12
76128;BME280;64873;50.102;14.434;2023-03-13T12:11:25;98269.16;;;12.97;63.38
76128;BME280;64873;50.102;14.434;2023-03-13T12:13:58;98272.78;;;12.81;64.02
76128;BME280;64873;50.102;14.434;2023-03-13T12:16:59;98275.09;;;13.04;63.30
76128;BME280;64873;50.102;14.434;2023-03-13T12:19:33;98278.31;;;13.06;63.52
76128;BME280;64873;50.102;14.434;2023-03-13T12:22:20;98273.53;;;13.08;63.15
76128;BME280;64873;50.102;14.434;2023-03-13T12:27:35;98255.81;;;13.07;63.23
76128;BME280;64873;50.102;14.434;2023-03-13T12:32:39;98252.84;;;13.46;62.08
76128;BME280;64873;50.102;14.434;2023-03-13T12:37:48;98248.53;;;13.40;62.14
76128;BME280;64873;50.102;14.434;2023-03-13T12:40:22;98236.84;;;13.72;61.21
76128;BME280;64873;50.102;14.434;2023-03-13T12:45:18;98241.06;;;13.52;61.57
76128;BME280;64873;50.102;14.434;2023-03-13T12:47:53;98246.34;;;13.32;62.08
76128;BME280;64873;50.102;14.434;2023-03-13T12:50:43;98245.38;;;13.53;61.82
76128;BME280;64873;50.102;14.434;2023-03-13T12:53:36;98237.81;;;13.45;62.27
76128;BME280;64873;50.102;14.434;2023-03-13T13:01:16;98240.91;;;13.22;62.91
76128;BME280;64873;50.102;14.434;2023-03-13T13:04:00;98233.47;;;13.34;62.50
76128;BME280;64873;50.102;14.434;2023-03-13T13:09:23;98232.97;;;13.37;62.25
76128;BME280;64873;50.102;14.434;2023-03-13T13:11:51;98217.91;;;13.31;62.51
76128;BME280;64873;50.102;14.434;2023-03-13T13:16:43;98223.31;;;13.41;62.10
76128;BME280;64873;50.102;14.434;2023-03-13T13:25:01;98204.56;;;13.51;61.80
76128;BME280;64873;50.102;14.434;2023-03-13T13:27:47;98203.53;;;13.63;61.64
76128;BME280;64873;50.102;14.434;2023-03-13T13:32:48;98212.59;;;13.46;61.95
76128;BME280;64873;50.102;14.434;2023-03-13T13:35:32;98193.47;;;13.32;62.15
76128;BME280;64873;50.102;14.434;2023-03-13T13:40:58;98200.47;;;13.33;62.52
76128;BME280;64873;50.102;14.434;2023-03-13T13:43:24;98200.22;;;13.40;63.14
76128;BME280;64873;50.102;14.434;2023-03-13T13:54:31;98190.13;;;13.68;61.68
76128;BME280;64873;50.102;14.434;2023-03-13T13:56:59;98182.09;;;13.68;61.68
76128;BME280;64873;50.102;14.434;2023-03-13T13:59:34;98171.88;;;13.70;61.87
76128;BME280;64873;50.102;14.434;2023-03-13T14:04:36;98180.47;;;13.72;61.80
76128;BME280;64873;50.102;14.434;2023-03-13T14:07:04;98185.03;;;13.61;61.97
76128;BME280;64873;50.102;14.434;2023-03-13T14:09:42;98188.00;;;13.75;61.69
76128;BME280;64873;50.102;14.434;2023-03-13T14:12:31;98183.38;;;13.50;62.34
76128;BME280;64873;50.102;14.434;2023-03-13T14:17:49;98180.47;;;13.72;61.87
76128;BME280;64873;50.102;14.434;2023-03-13T14:22:46;98178.97;;;14.01;60.86
76128;BME280;64873;50.102;14.434;2023-03-13T14:25:12;98185.38;;;13.95;61.08
76128;BME280;64873;50.102;14.434;2023-03-13T14:27:45;98173.06;;;14.14;60.65
76128;BME280;64873;50.102;14.434;2023-03-13T14:30:15;98159.09;;;14.18;60.39
76128;BME280;64873;50.102;14.434;2023-03-13T14:32:41;98149.69;;;14.15;60.53
76128;BME280;64873;50.102;14.434;2023-03-13T14:35:09;98145.13;;;14.10;60.45